Time;durP1;ratioP1;P1;durP2;ratioP2;P2;SDS_P1;SDS_P2;PMS_P1;PMS_P2;Temp;Humidity;BMP_temperature;BMP_pressure;BME280_temperature;BME280_humidity;BME280_pressure;Samples;Min_cycle;Max_cycle;Signal;HPM_P1;HPM_P2
2023/09/19 00:01:19;;;;;;;0.10;0.10;;;;;;;;;;10305699;28;20584;-77
2023/09/19 00:06:20;;;;;;;0.10;0.10;;;;;;;;;;10315155;28;20224;-75
2023/09/19 00:11:26;;;;;;;0.10;0.10;;;;;;;;;;10311030;28;20204;-76
2023/09/19 00:16:27;;;;;;;0.13;0.13;;;;;;;;;;10295574;28;20264;-76
2023/09/19 00:21:28;;;;;;;0.95;0.10;;;;;;;;;;10284277;28;20706;-75
2023/09/19 00:26:30;;;;;;;0.10;0.10;;;;;;;;;;10301763;28;20310;-76
2023/09/19 00:31:32;;;;;;;0.10;0.10;;;;;;;;;;10299793;28;20647;-76
2023/09/19 00:36:33;;;;;;;0.10;0.10;;;;;;;;;;10302154;28;20307;-77
2023/09/19 00:41:38;;;;;;;0.38;0.10;;;;;;;;;;10306744;28;20248;-76
2023/09/19 00:46:39;;;;;;;0.30;0.13;;;;;;;;;;10300394;28;20229;-75
2023/09/19 00:51:45;;;;;;;0.10;0.10;;;;;;;;;;10305477;28;20216;-74
2023/09/19 00:56:47;;;;;;;2.13;0.38;;;;;;;;;;10286069;28;20209;-76
2023/09/19 01:01:52;;;;;;;0.20;0.20;;;;;;;;;;10283167;28;20229;-76
2023/09/19 01:06:54;;;;;;;0.20;0.20;;;;;;;;;;10317226;28;20391;-75
2023/09/19 01:12:00;;;;;;;1.20;0.20;;;;;;;;;;10299356;28;20259;-75
2023/09/19 01:17:10;;;;;;;0.30;0.30;;;;;;;;;;10301958;28;20208;-76
2023/09/19 01:22:14;;;;;;;0.20;0.10;;;;;;;;;;10289290;28;20225;-75
2023/09/19 01:27:22;;;;;;;0.10;0.10;;;;;;;;;;10312523;28;20224;-75
2023/09/19 01:32:24;;;;;;;0.20;0.20;;;;;;;;;;10307430;28;21704;-74
2023/09/19 01:37:26;;;;;;;0.20;0.20;;;;;;;;;;10277213;28;20359;-75
2023/09/19 01:42:32;;;;;;;0.10;0.10;;;;;;;;;;10283626;28;20224;-76
2023/09/19 01:47:35;;;;;;;0.10;0.10;;;;;;;;;;10295575;28;20225;-74
2023/09/19 01:52:42;;;;;;;0.28;0.20;;;;;;;;;;10299052;28;20336;-75
2023/09/19 01:57:43;;;;;;;0.20;0.20;;;;;;;;;;10305792;28;20224;-75
2023/09/19 02:02:45;;;;;;;0.38;0.38;;;;;;;;;;10290582;28;20305;-74
2023/09/19 02:07:47;;;;;;;0.73;0.30;;;;;;;;;;10300257;28;20216;-75
2023/09/19 02:12:48;;;;;;;0.30;0.30;;;;;;;;;;10277294;28;20244;-75
2023/09/19 02:17:49;;;;;;;0.57;0.50;;;;;;;;;;10265729;28;20228;-75
2023/09/19 02:22:52;;;;;;;1.58;0.25;;;;;;;;;;10291255;28;20216;-75
2023/09/19 02:27:54;;;;;;;1.27;0.40;;;;;;;;;;10277397;28;20304;-76
2023/09/19 02:32:55;;;;;;;0.40;0.20;;;;;;;;;;10291255;28;20846;-76
2023/09/19 02:37:56;;;;;;;0.95;0.40;;;;;;;;;;10303831;28;20228;-74
2023/09/19 02:42:59;;;;;;;1.17;0.40;;;;;;;;;;10296129;28;20224;-75
2023/09/19 02:48:00;;;;;;;1.38;0.40;;;;;;;;;;10305710;28;20212;-76
2023/09/19 02:53:01;;;;;;;1.23;0.43;;;;;;;;;;10299266;28;20209;-76
2023/09/19 02:58:05;;;;;;;0.93;0.57;;;;;;;;;;10297335;28;20224;-76
2023/09/19 03:03:06;;;;;;;0.40;0.40;;;;;;;;;;10307793;28;20652;-76
2023/09/19 03:08:08;;;;;;;0.45;0.45;;;;;;;;;;10296146;28;20916;-75
2023/09/19 03:13:09;;;;;;;1.67;0.40;;;;;;;;;;10288661;28;20303;-75
2023/09/19 03:18:11;;;;;;;0.40;0.30;;;;;;;;;;10294940;28;20228;-74
2023/09/19 03:23:13;;;;;;;2.85;0.38;;;;;;;;;;10293739;28;21820;-75
2023/09/19 03:28:16;;;;;;;0.35;0.20;;;;;;;;;;10295438;28;20247;-75
2023/09/19 03:33:17;;;;;;;0.00;0.00;;;;;;;;;;10294591;28;20224;-74
2023/09/19 03:38:19;;;;;;;0.45;0.10;;;;;;;;;;10297157;28;20761;-75
2023/09/19 03:43:20;;;;;;;0.00;0.00;;;;;;;;;;10294945;28;20212;-74
2023/09/19 03:48:21;;;;;;;0.35;0.10;;;;;;;;;;10296067;28;20649;-76
2023/09/19 03:53:23;;;;;;;0.00;0.00;;;;;;;;;;10296223;28;20216;-75
2023/09/19 03:58:24;;;;;;;0.10;0.10;;;;;;;;;;10309110;28;20217;-75
2023/09/19 04:03:34;;;;;;;0.00;0.00;;;;;;;;;;10297863;28;20220;-76
2023/09/19 04:08:35;;;;;;;0.08;0.08;;;;;;;;;;10287225;28;20294;-75
2023/09/19 04:13:36;;;;;;;0.08;0.08;;;;;;;;;;10304497;28;20205;-74
2023/09/19 04:18:39;;;;;;;0.05;0.05;;;;;;;;;;10314449;28;20220;-75
2023/09/19 04:23:41;;;;;;;0.20;0.20;;;;;;;;;;10286223;28;20789;-76
2023/09/19 04:28:43;;;;;;;0.03;0.03;;;;;;;;;;10287535;28;20221;-76
2023/09/19 04:33:44;;;;;;;0.05;0.05;;;;;;;;;;10302369;28;20312;-76
2023/09/19 04:38:46;;;;;;;0.10;0.10;;;;;;;;;;10313795;28;20223;-75
2023/09/19 04:43:47;;;;;;;0.10;0.10;;;;;;;;;;10314102;28;20224;-76
2023/09/19 04:48:48;;;;;;;0.00;0.00;;;;;;;;;;10295290;28;20224;-76
2023/09/19 04:53:49;;;;;;;0.00;0.00;;;;;;;;;;10294882;28;20205;-76
2023/09/19 04:58:50;;;;;;;0.10;0.10;;;;;;;;;;10285781;28;20217;-76
2023/09/19 05:03:54;;;;;;;0.10;0.10;;;;;;;;;;10300763;28;20212;-76
2023/09/19 05:08:55;;;;;;;0.10;0.10;;;;;;;;;;10281592;28;20254;-76
2023/09/19 05:13:56;;;;;;;0.20;0.20;;;;;;;;;;10268661;28;20252;-77
2023/09/19 05:18:59;;;;;;;0.10;0.10;;;;;;;;;;10282007;28;20250;-78
2023/09/19 05:24:00;;;;;;;0.00;0.00;;;;;;;;;;10305527;28;20216;-77
2023/09/19 05:29:03;;;;;;;0.20;0.20;;;;;;;;;;10305179;28;20221;-77
2023/09/19 05:34:06;;;;;;;0.30;0.30;;;;;;;;;;10301674;28;20232;-76
2023/09/19 05:39:09;;;;;;;0.10;0.10;;;;;;;;;;10302364;28;20279;-76
2023/09/19 05:44:10;;;;;;;0.17;0.17;;;;;;;;;;10299110;28;20669;-76
2023/09/19 05:49:11;;;;;;;0.00;0.00;;;;;;;;;;10301788;28;20216;-76
2023/09/19 05:54:12;;;;;;;0.00;0.00;;;;;;;;;;10306778;28;20299;-76
2023/09/19 05:59:16;;;;;;;0.00;0.00;;;;;;;;;;10297980;28;20224;-78
2023/09/19 06:04:18;;;;;;;0.00;0.00;;;;;;;;;;10311381;28;20945;-75
2023/09/19 06:09:20;;;;;;;0.10;0.10;;;;;;;;;;10286463;28;20801;-76
2023/09/19 06:14:24;;;;;;;0.10;0.10;;;;;;;;;;10304430;28;20224;-75
2023/09/19 06:19:25;;;;;;;0.00;0.00;;;;;;;;;;10310580;28;20252;-75
2023/09/19 06:24:26;;;;;;;0.10;0.10;;;;;;;;;;10290284;28;20216;-77
2023/09/19 06:29:28;;;;;;;0.20;0.13;;;;;;;;;;10285214;28;20244;-76
2023/09/19 06:34:29;;;;;;;1.88;0.10;;;;;;;;;;10302246;28;20223;-78
2023/09/19 06:39:31;;;;;;;0.10;0.10;;;;;;;;;;10311816;28;21207;-75
2023/09/19 06:44:32;;;;;;;0.08;0.08;;;;;;;;;;10288933;28;21185;-75
2023/09/19 06:49:33;;;;;;;0.00;0.00;;;;;;;;;;10277216;28;20275;-76
2023/09/19 06:54:35;;;;;;;0.08;0.08;;;;;;;;;;10288135;28;20209;-76
2023/09/19 06:59:37;;;;;;;0.65;0.25;;;;;;;;;;10287790;28;20208;-76
2023/09/19 07:04:38;;;;;;;0.05;0.05;;;;;;;;;;10305386;28;20213;-77
2023/09/19 07:09:39;;;;;;;0.10;0.10;;;;;;;;;;10286544;28;20749;-75
2023/09/19 07:14:40;;;;;;;0.00;0.00;;;;;;;;;;10288168;28;20334;-76
2023/09/19 07:19:41;;;;;;;0.00;0.00;;;;;;;;;;10292803;28;20729;-76
2023/09/19 07:24:42;;;;;;;0.08;0.08;;;;;;;;;;10287305;28;20363;-76
2023/09/19 07:29:44;;;;;;;0.52;0.15;;;;;;;;;;10280459;28;20221;-74
2023/09/19 07:34:45;;;;;;;0.00;0.00;;;;;;;;;;10300258;28;20962;-77
2023/09/19 07:39:46;;;;;;;1.23;0.05;;;;;;;;;;10298546;28;20255;-76
2023/09/19 07:44:50;;;;;;;0.00;0.00;;;;;;;;;;10309224;28;20343;-75
2023/09/19 07:49:51;;;;;;;6.60;0.98;;;;;;;;;;10299779;28;20217;-75
2023/09/19 07:54:53;;;;;;;0.30;0.20;;;;;;;;;;10305635;28;20715;-77
2023/09/19 07:59:54;;;;;;;0.00;0.00;;;;;;;;;;10281703;28;20240;-76
2023/09/19 08:04:57;;;;;;;0.30;0.30;;;;;;;;;;10294233;28;20240;-74
2023/09/19 08:09:59;;;;;;;0.00;0.00;;;;;;;;;;10316039;28;20224;-77
2023/09/19 08:15:00;;;;;;;0.47;0.47;;;;;;;;;;10318246;28;20209;-77
2023/09/19 08:20:05;;;;;;;0.10;0.10;;;;;;;;;;10328135;28;20701;-75
2023/09/19 08:25:07;;;;;;;0.03;0.03;;;;;;;;;;10303093;28;20591;-76
2023/09/19 08:30:08;;;;;;;0.50;0.10;;;;;;;;;;10295779;28;20765;-76
2023/09/19 08:35:10;;;;;;;0.00;0.00;;;;;;;;;;10310259;28;20925;-76
2023/09/19 08:40:12;;;;;;;0.00;0.00;;;;;;;;;;10314885;28;20204;-75
2023/09/19 08:45:13;;;;;;;0.00;0.00;;;;;;;;;;10298238;28;20188;-76
2023/09/19 08:50:29;;;;;;;0.00;0.00;;;;;;;;;;10328339;28;20208;-76
2023/09/19 08:55:30;;;;;;;0.00;0.00;;;;;;;;;;10316727;28;20219;-75
2023/09/19 09:00:31;;;;;;;0.00;0.00;;;;;;;;;;10313571;28;20235;-74
2023/09/19 09:05:33;;;;;;;0.00;0.00;;;;;;;;;;10290544;28;20745;-75
2023/09/19 09:10:34;;;;;;;0.00;0.00;;;;;;;;;;10299148;28;20223;-76
2023/09/19 09:15:39;;;;;;;0.00;0.00;;;;;;;;;;10297171;28;20343;-75
2023/09/19 09:20:41;;;;;;;1.45;0.10;;;;;;;;;;10286098;28;20232;-76
2023/09/19 09:26:09;;;;;;;0.05;0.05;;;;;;;;;;10308091;28;20315;-76
2023/09/19 09:31:22;;;;;;;1.17;0.10;;;;;;;;;;10298452;28;20673;-76
2023/09/19 09:36:41;;;;;;;0.00;0.00;;;;;;;;;;10314560;28;20218;-76
2023/09/19 09:41:43;;;;;;;0.00;0.00;;;;;;;;;;10283181;28;20229;-75
2023/09/19 09:52:09;;;;;;;0.00;0.00;;;;;;;;;;10290872;28;20275;-75
2023/09/19 09:57:20;;;;;;;0.55;0.10;;;;;;;;;;10285259;28;20293;-75
2023/09/19 10:02:36;;;;;;;1.42;0.10;;;;;;;;;;10320897;28;20217;-76
2023/09/19 10:07:50;;;;;;;0.03;0.03;;;;;;;;;;10309883;28;20279;-75
2023/09/19 10:12:56;;;;;;;0.22;0.03;;;;;;;;;;10302283;28;20231;-76
2023/09/19 10:17:58;;;;;;;0.00;0.00;;;;;;;;;;10293700;28;20216;-76
2023/09/19 10:23:00;;;;;;;0.00;0.00;;;;;;;;;;10282717;28;20786;-76
2023/09/19 10:28:03;;;;;;;0.10;0.10;;;;;;;;;;10302981;28;20757;-75
2023/09/19 10:33:05;;;;;;;0.08;0.08;;;;;;;;;;10271053;28;20326;-76
2023/09/19 10:38:08;;;;;;;0.38;0.38;;;;;;;;;;10286335;28;20212;-77
2023/09/19 10:43:17;;;;;;;0.10;0.10;;;;;;;;;;10304991;28;20216;-77
2023/09/19 10:48:19;;;;;;;0.10;0.10;;;;;;;;;;10286669;28;20224;-78
2023/09/19 10:53:21;;;;;;;0.00;0.00;;;;;;;;;;10294286;28;20816;-76
2023/09/19 10:58:30;;;;;;;0.00;0.00;;;;;;;;;;10301273;28;20238;-77
2023/09/19 11:03:32;;;;;;;0.10;0.10;;;;;;;;;;10307033;28;20252;-76
2023/09/19 11:08:51;;;;;;;0.00;0.00;;;;;;;;;;10288317;28;20224;-76
2023/09/19 11:14:12;;;;;;;0.00;0.00;;;;;;;;;;10305945;28;20224;-77
2023/09/19 11:19:13;;;;;;;0.10;0.10;;;;;;;;;;10297300;28;20235;-76
2023/09/19 11:24:26;;;;;;;0.00;0.00;;;;;;;;;;10296336;28;20207;-76
2023/09/19 11:29:29;;;;;;;0.00;0.00;;;;;;;;;;10280402;28;20224;-76
2023/09/19 11:34:39;;;;;;;1.40;0.10;;;;;;;;;;10295577;28;20208;-76
2023/09/19 11:40:01;;;;;;;0.00;0.00;;;;;;;;;;10280057;28;20224;-75
2023/09/19 11:45:02;;;;;;;0.17;0.10;;;;;;;;;;10281205;28;20695;-76
2023/09/19 11:50:03;;;;;;;0.00;0.00;;;;;;;;;;10296946;28;20808;-76
2023/09/19 11:55:04;;;;;;;0.10;0.10;;;;;;;;;;10309856;28;20180;-77
2023/09/19 12:00:10;;;;;;;0.03;0.03;;;;;;;;;;10291563;28;20251;-76
2023/09/19 12:05:13;;;;;;;0.40;0.00;;;;;;;;;;10305482;28;20212;-76
2023/09/19 12:10:16;;;;;;;0.00;0.00;;;;;;;;;;10302959;28;20330;-76
2023/09/19 12:15:24;;;;;;;0.00;0.00;;;;;;;;;;10326160;28;20180;-77
2023/09/19 12:20:25;;;;;;;0.00;0.00;;;;;;;;;;10312816;28;20229;-78
2023/09/19 12:25:27;;;;;;;0.20;0.20;;;;;;;;;;10314724;28;20247;-76
2023/09/19 12:30:33;;;;;;;0.00;0.00;;;;;;;;;;10294299;28;20281;-76
2023/09/19 12:35:35;;;;;;;0.10;0.10;;;;;;;;;;10320859;28;20224;-75
2023/09/19 12:40:38;;;;;;;1.65;0.10;;;;;;;;;;10301429;28;20228;-77
2023/09/19 12:45:41;;;;;;;0.00;0.00;;;;;;;;;;10327691;28;20216;-75
2023/09/19 12:51:05;;;;;;;0.00;0.00;;;;;;;;;;10298493;28;20224;-76
2023/09/19 12:56:08;;;;;;;0.00;0.00;;;;;;;;;;10331580;28;20224;-76
2023/09/19 13:01:14;;;;;;;0.13;0.13;;;;;;;;;;10309714;28;20808;-76
2023/09/19 13:06:16;;;;;;;0.25;0.25;;;;;;;;;;10297513;28;20308;-77
2023/09/19 13:11:20;;;;;;;0.05;0.05;;;;;;;;;;10275087;28;20271;-76
2023/09/19 13:16:24;;;;;;;0.00;0.00;;;;;;;;;;10289541;28;20296;-77
2023/09/19 13:21:55;;;;;;;0.52;0.15;;;;;;;;;;10269134;28;20213;-77
2023/09/19 13:26:54;;;;;;;0.10;0.10;;;;;;;;;;10290517;28;20323;-76
2023/09/19 13:31:55;;;;;;;0.00;0.00;;;;;;;;;;10294222;28;20221;-76
2023/09/19 13:36:58;;;;;;;0.10;0.10;;;;;;;;;;10246654;28;20220;-77
2023/09/19 13:41:59;;;;;;;0.00;0.00;;;;;;;;;;10252729;28;20308;-76
2023/09/19 13:47:01;;;;;;;0.10;0.10;;;;;;;;;;10266445;28;20217;-76
2023/09/19 13:52:05;;;;;;;0.20;0.20;;;;;;;;;;10282109;28;20236;-76
2023/09/19 13:57:07;;;;;;;0.10;0.10;;;;;;;;;;10270890;28;20221;-76
2023/09/19 14:02:08;;;;;;;0.10;0.10;;;;;;;;;;10252911;28;20237;-77
2023/09/19 14:07:10;;;;;;;0.00;0.00;;;;;;;;;;10267269;28;20232;-76
2023/09/19 14:12:11;;;;;;;0.10;0.10;;;;;;;;;;10270441;28;20715;-76
2023/09/19 14:17:13;;;;;;;0.05;0.05;;;;;;;;;;10264394;28;20227;-75
2023/09/19 14:22:14;;;;;;;0.30;0.30;;;;;;;;;;10266016;28;21020;-75
2023/09/19 14:27:15;;;;;;;0.03;0.03;;;;;;;;;;10267563;28;20707;-75
2023/09/19 14:32:16;;;;;;;0.08;0.08;;;;;;;;;;10255689;28;20225;-75
2023/09/19 14:37:17;;;;;;;0.17;0.17;;;;;;;;;;10266000;28;20312;-75
2023/09/19 14:42:18;;;;;;;0.65;0.10;;;;;;;;;;10270456;28;20524;-75
2023/09/19 14:47:19;;;;;;;0.20;0.20;;;;;;;;;;10266612;28;20231;-75
2023/09/19 14:52:20;;;;;;;0.10;0.10;;;;;;;;;;10270722;28;20280;-76
2023/09/19 14:57:24;;;;;;;0.03;0.03;;;;;;;;;;10244882;28;20232;-75
2023/09/19 15:02:25;;;;;;;0.10;0.10;;;;;;;;;;10279616;28;20304;-75
2023/09/19 15:07:28;;;;;;;0.13;0.13;;;;;;;;;;10277496;28;20394;-76
2023/09/19 15:12:29;;;;;;;1.48;0.20;;;;;;;;;;10296384;28;20621;-76
2023/09/19 15:17:30;;;;;;;0.35;0.05;;;;;;;;;;10296964;28;20216;-76
2023/09/19 15:22:31;;;;;;;0.10;0.10;;;;;;;;;;10283669;28;20224;-74
2023/09/19 15:27:33;;;;;;;0.10;0.10;;;;;;;;;;10307663;28;20216;-76
2023/09/19 15:32:34;;;;;;;0.00;0.00;;;;;;;;;;10299549;28;20212;-76
2023/09/19 15:37:35;;;;;;;0.32;0.10;;;;;;;;;;10297330;28;20212;-75
2023/09/19 15:42:36;;;;;;;0.10;0.10;;;;;;;;;;10310328;28;20283;-75
2023/09/19 15:47:37;;;;;;;0.10;0.10;;;;;;;;;;10303238;28;20217;-77
2023/09/19 15:52:39;;;;;;;0.00;0.00;;;;;;;;;;10314745;28;20270;-76
2023/09/19 15:57:40;;;;;;;0.30;0.30;;;;;;;;;;10301146;28;20224;-76
2023/09/19 16:02:41;;;;;;;0.10;0.10;;;;;;;;;;10311238;28;20224;-76
2023/09/19 16:07:43;;;;;;;0.10;0.00;;;;;;;;;;10312850;28;20220;-75
2023/09/19 16:12:44;;;;;;;2.20;0.20;;;;;;;;;;10298612;28;20213;-77
2023/09/19 16:17:46;;;;;;;0.05;0.05;;;;;;;;;;10301499;28;20270;-77
2023/09/19 16:22:47;;;;;;;0.10;0.10;;;;;;;;;;10301295;28;20227;-76
2023/09/19 16:27:49;;;;;;;0.20;0.17;;;;;;;;;;10289069;28;20212;-77
2023/09/19 16:32:50;;;;;;;0.30;0.10;;;;;;;;;;10300384;28;20730;-76
2023/09/19 16:37:51;;;;;;;0.03;0.03;;;;;;;;;;10300955;28;20232;-76
2023/09/19 16:42:54;;;;;;;0.05;0.05;;;;;;;;;;10306230;28;20609;-76
2023/09/19 16:47:55;;;;;;;0.00;0.00;;;;;;;;;;10308536;28;20231;-76
2023/09/19 16:52:56;;;;;;;0.00;0.00;;;;;;;;;;10302318;28;20231;-76
2023/09/19 16:57:59;;;;;;;5.38;0.10;;;;;;;;;;10297016;28;20277;-76
2023/09/19 17:03:00;;;;;;;0.00;0.00;;;;;;;;;;10311409;28;20224;-76
2023/09/19 17:08:01;;;;;;;0.00;0.00;;;;;;;;;;10318143;28;20236;-75
2023/09/19 17:13:08;;;;;;;0.10;0.10;;;;;;;;;;10319759;28;20740;-74
2023/09/19 17:18:09;;;;;;;0.00;0.00;;;;;;;;;;10311937;28;20217;-76
2023/09/19 17:23:10;;;;;;;0.20;0.20;;;;;;;;;;10301142;28;20222;-76
2023/09/19 17:28:11;;;;;;;0.25;0.10;;;;;;;;;;10323864;28;20310;-76
2023/09/19 17:33:12;;;;;;;0.08;0.08;;;;;;;;;;10326720;28;20230;-76
2023/09/19 17:38:13;;;;;;;0.10;0.10;;;;;;;;;;10297920;28;20239;-76
2023/09/19 17:43:14;;;;;;;0.00;0.00;;;;;;;;;;10303965;28;20208;-76
2023/09/19 17:48:15;;;;;;;0.00;0.00;;;;;;;;;;10293108;28;20217;-76
2023/09/19 17:53:16;;;;;;;1.65;0.05;;;;;;;;;;10296999;28;20213;-75
2023/09/19 17:58:17;;;;;;;0.00;0.00;;;;;;;;;;10325333;28;20216;-76
2023/09/19 18:03:18;;;;;;;0.00;0.00;;;;;;;;;;10315333;28;20412;-75
2023/09/19 18:08:21;;;;;;;0.00;0.00;;;;;;;;;;10298531;28;20287;-76
2023/09/19 18:13:22;;;;;;;0.08;0.08;;;;;;;;;;10306753;28;20204;-75
2023/09/19 18:18:25;;;;;;;0.00;0.00;;;;;;;;;;10291838;28;20703;-75
2023/09/19 18:23:26;;;;;;;0.03;0.03;;;;;;;;;;10288901;28;21373;-76
2023/09/19 18:28:27;;;;;;;0.10;0.10;;;;;;;;;;10293641;28;20235;-75
2023/09/19 18:33:28;;;;;;;0.55;0.55;;;;;;;;;;10269255;28;20243;-75
2023/09/19 18:38:29;;;;;;;0.00;0.00;;;;;;;;;;10305811;28;20240;-76
2023/09/19 18:43:30;;;;;;;0.38;0.20;;;;;;;;;;10295529;28;20308;-76
2023/09/19 18:48:32;;;;;;;0.05;0.00;;;;;;;;;;10310481;28;20231;-75
2023/09/19 18:53:35;;;;;;;0.00;0.00;;;;;;;;;;10281632;28;20243;-75
2023/09/19 18:58:36;;;;;;;0.00;0.00;;;;;;;;;;10305318;28;20223;-75
2023/09/19 19:03:38;;;;;;;0.10;0.10;;;;;;;;;;10296785;28;21006;-76
2023/09/19 19:08:39;;;;;;;0.00;0.00;;;;;;;;;;10286144;28;20243;-75
2023/09/19 19:13:41;;;;;;;0.10;0.10;;;;;;;;;;10299402;28;20271;-75
2023/09/19 19:18:42;;;;;;;0.00;0.00;;;;;;;;;;10290343;28;20224;-76
2023/09/19 19:23:43;;;;;;;0.05;0.05;;;;;;;;;;10286688;28;20797;-76
2023/09/19 19:28:45;;;;;;;0.00;0.00;;;;;;;;;;10289002;28;20894;-75
2023/09/19 19:33:46;;;;;;;0.70;0.20;;;;;;;;;;10291861;28;20216;-75
2023/09/19 19:38:48;;;;;;;0.17;0.17;;;;;;;;;;10301370;28;20270;-75
2023/09/19 19:43:49;;;;;;;0.15;0.15;;;;;;;;;;10289014;28;20216;-76
2023/09/19 19:48:51;;;;;;;0.10;0.10;;;;;;;;;;10317502;28;20323;-76
2023/09/19 19:53:54;;;;;;;0.10;0.10;;;;;;;;;;10295490;28;20205;-75
2023/09/19 19:58:55;;;;;;;0.52;0.25;;;;;;;;;;10297087;28;20227;-75
2023/09/19 20:03:57;;;;;;;0.10;0.10;;;;;;;;;;10308031;28;20220;-74
2023/09/19 20:08:58;;;;;;;0.00;0.00;;;;;;;;;;10293108;28;20221;-75
2023/09/19 20:14:02;;;;;;;0.40;0.40;;;;;;;;;;10316536;28;20234;-76
2023/09/19 20:19:04;;;;;;;0.30;0.30;;;;;;;;;;10283792;28;20693;-76
2023/09/19 20:24:06;;;;;;;0.00;0.00;;;;;;;;;;10293117;28;20262;-76
2023/09/19 20:29:07;;;;;;;0.00;0.00;;;;;;;;;;10290544;28;20217;-77
2023/09/19 20:34:09;;;;;;;0.00;0.00;;;;;;;;;;10313614;28;20211;-77
2023/09/19 20:39:10;;;;;;;0.55;0.30;;;;;;;;;;10286726;28;21102;-76
2023/09/19 20:44:11;;;;;;;0.00;0.00;;;;;;;;;;10280340;28;20205;-76
2023/09/19 20:49:12;;;;;;;0.00;0.00;;;;;;;;;;10301689;28;20240;-75
2023/09/19 20:54:16;;;;;;;0.08;0.08;;;;;;;;;;10301012;28;20240;-75
2023/09/19 20:59:17;;;;;;;0.00;0.00;;;;;;;;;;10314650;28;20248;-74
2023/09/19 21:04:18;;;;;;;0.00;0.00;;;;;;;;;;10296595;28;20307;-75
2023/09/19 21:09:19;;;;;;;0.45;0.00;;;;;;;;;;10256211;28;20235;-75
2023/09/19 21:14:20;;;;;;;0.00;0.00;;;;;;;;;;10285862;28;20730;-75
2023/09/19 21:19:21;;;;;;;0.20;0.20;;;;;;;;;;10270005;28;20248;-75
2023/09/19 21:24:26;;;;;;;0.30;0.30;;;;;;;;;;10274835;28;20245;-75
2023/09/19 21:29:27;;;;;;;0.00;0.00;;;;;;;;;;10248996;28;20292;-76
2023/09/19 21:34:29;;;;;;;0.00;0.00;;;;;;;;;;10256928;28;20591;-76
2023/09/19 21:39:30;;;;;;;0.40;0.40;;;;;;;;;;10257980;28;20768;-75
2023/09/19 21:44:31;;;;;;;0.20;0.20;;;;;;;;;;10254831;28;20657;-76
2023/09/19 21:49:32;;;;;;;0.08;0.08;;;;;;;;;;10289225;28;20220;-75
2023/09/19 21:54:33;;;;;;;0.15;0.15;;;;;;;;;;10262217;28;20307;-77
2023/09/19 21:59:34;;;;;;;0.00;0.00;;;;;;;;;;10288800;28;20213;-74
2023/09/19 22:04:35;;;;;;;0.28;0.20;;;;;;;;;;10249997;28;20244;-75
2023/09/19 22:09:36;;;;;;;0.00;0.00;;;;;;;;;;10249206;28;20283;-76
2023/09/19 22:14:38;;;;;;;0.00;0.00;;;;;;;;;;10259747;28;20205;-76
2023/09/19 22:19:43;;;;;;;0.10;0.10;;;;;;;;;;10259642;28;20213;-76
2023/09/19 22:24:44;;;;;;;0.00;0.00;;;;;;;;;;10260156;28;20225;-76
2023/09/19 22:29:45;;;;;;;0.00;0.00;;;;;;;;;;10262489;28;20229;-78
2023/09/19 22:34:49;;;;;;;0.00;0.00;;;;;;;;;;10262168;28;20599;-76
2023/09/19 22:39:50;;;;;;;0.00;0.00;;;;;;;;;;10265370;28;20213;-76
2023/09/19 22:44:54;;;;;;;0.00;0.00;;;;;;;;;;10229704;28;20262;-76
2023/09/19 22:49:55;;;;;;;0.00;0.00;;;;;;;;;;10263306;28;20218;-76
2023/09/19 22:54:58;;;;;;;0.00;0.00;;;;;;;;;;10244171;28;20214;-77
2023/09/19 22:59:59;;;;;;;0.00;0.00;;;;;;;;;;10225228;28;21105;-77
2023/09/19 23:05:02;;;;;;;0.10;0.10;;;;;;;;;;10240094;28;20328;-77
2023/09/19 23:10:05;;;;;;;0.00;0.00;;;;;;;;;;10324562;28;20220;-77
2023/09/19 23:15:10;;;;;;;0.00;0.00;;;;;;;;;;10310234;28;20184;-77
2023/09/19 23:20:24;;;;;;;0.00;0.00;;;;;;;;;;10317306;28;20859;-76
2023/09/19 23:25:27;;;;;;;0.43;0.10;;;;;;;;;;10306046;28;20319;-76
2023/09/19 23:30:32;;;;;;;0.00;0.00;;;;;;;;;;10285720;28;20229;-76
2023/09/19 23:35:33;;;;;;;0.00;0.00;;;;;;;;;;10282501;28;20255;-76
2023/09/19 23:40:36;;;;;;;0.00;0.00;;;;;;;;;;10291942;28;20809;-76
2023/09/19 23:45:39;;;;;;;0.00;0.00;;;;;;;;;;10291140;28;20337;-76
2023/09/19 23:50:42;;;;;;;0.00;0.00;;;;;;;;;;10320398;28;20224;-75
2023/09/19 23:55:47;;;;;;;0.30;0.10;;;;;;;;;;10327773;28;20221;-75
